createdAt,value
2022-12-19T00:03:34.056Z,-3.10
2022-12-19T00:09:02.982Z,-2.99
2022-12-19T00:14:28.044Z,-2.88
2022-12-19T00:19:53.006Z,-2.88
2022-12-19T00:25:20.984Z,-2.81
2022-12-19T00:30:46.952Z,-2.77
2022-12-19T00:36:08.982Z,-2.72
2022-12-19T00:41:41.725Z,-2.66
2022-12-19T00:46:59.968Z,-2.64
2022-12-19T00:52:24.964Z,-2.55
2022-12-19T00:57:51.987Z,-2.50
2022-12-19T01:03:19.059Z,-2.45
2022-12-19T01:08:43.962Z,-2.34
2022-12-19T01:14:14.942Z,-2.23
2022-12-19T01:19:44.565Z,-2.29
2022-12-19T01:25:10.000Z,-2.29
2022-12-19T01:30:36.990Z,-2.27
2022-12-19T01:36:02.013Z,-2.27
2022-12-19T01:41:26.992Z,-2.24
2022-12-19T01:46:56.995Z,-2.19
2022-12-19T01:52:24.052Z,-2.13
2022-12-19T01:57:49.016Z,-2.08
2022-12-19T02:03:22.048Z,-2.00
2022-12-19T02:08:48.961Z,-1.97
2022-12-19T02:14:13.970Z,-2.00
2022-12-19T02:20:18.974Z,-2.02
2022-12-19T02:26:16.036Z,-2.04
2022-12-19T02:31:48.029Z,-2.03
2022-12-19T02:37:17.980Z,-2.02
2022-12-19T02:42:49.079Z,-2.02
2022-12-19T02:48:19.480Z,-1.98
2022-12-19T02:53:51.983Z,-1.92
2022-12-19T02:59:32.045Z,-1.87
2022-12-19T03:05:10.008Z,-1.81
2022-12-19T03:10:44.038Z,-1.77
2022-12-19T03:16:09.026Z,-1.72
2022-12-19T03:21:44.171Z,-1.67
2022-12-19T03:27:13.015Z,-1.59
2022-12-19T03:32:41.022Z,-1.54
2022-12-19T03:38:11.064Z,-1.48
2022-12-19T03:43:38.049Z,-1.41
2022-12-19T03:49:05.039Z,-1.33
2022-12-19T03:54:43.066Z,-1.32
2022-12-19T04:00:13.094Z,-1.26
2022-12-19T04:05:40.059Z,-1.21
2022-12-19T04:11:14.072Z,-1.16
2022-12-19T04:16:45.048Z,-1.10
2022-12-19T04:22:17.068Z,-1.04
2022-12-19T04:27:47.102Z,-1.02
2022-12-19T04:33:12.081Z,-1.00
2022-12-19T04:38:36.104Z,-1.01
2022-12-19T04:44:04.056Z,-0.99
2022-12-19T04:49:28.079Z,-1.00
2022-12-19T04:54:59.066Z,-0.99
2022-12-19T05:00:27.071Z,-0.97
2022-12-19T05:05:51.092Z,-0.93
2022-12-19T05:11:19.860Z,-0.95
2022-12-19T05:16:47.077Z,-0.94
2022-12-19T05:22:12.113Z,-0.90
2022-12-19T05:27:36.068Z,-0.93
2022-12-19T05:33:04.087Z,-0.93
2022-12-19T05:38:28.090Z,-0.94
2022-12-19T05:43:53.072Z,-0.91
2022-12-19T05:49:20.119Z,-0.89
2022-12-19T05:54:51.097Z,-0.87
2022-12-19T06:00:19.092Z,-0.85
2022-12-19T06:05:46.132Z,-0.82
2022-12-19T06:11:12.102Z,-0.80
2022-12-19T06:16:38.225Z,-0.77
2022-12-19T06:22:06.087Z,-0.74
2022-12-19T06:27:30.107Z,-0.73
2022-12-19T06:32:55.100Z,-0.73
2022-12-19T06:38:22.114Z,-0.73
2022-12-19T06:43:51.911Z,-0.76
2022-12-19T06:49:17.108Z,-0.78
2022-12-19T06:54:51.108Z,-0.82
2022-12-19T07:00:18.111Z,-0.81
2022-12-19T07:05:42.104Z,-0.87
2022-12-19T07:11:10.140Z,-0.89
2022-12-19T07:16:34.125Z,-0.89
2022-12-19T07:21:59.113Z,-0.88
2022-12-19T07:27:31.736Z,-0.88
2022-12-19T07:33:00.126Z,-0.90
2022-12-19T07:38:25.103Z,-0.87
2022-12-19T07:43:54.252Z,-0.86
2022-12-19T07:49:22.619Z,-0.84
2022-12-19T07:54:55.782Z,-0.81
2022-12-19T08:00:25.106Z,-0.80
2022-12-19T08:05:50.117Z,-0.78
2022-12-19T08:11:20.112Z,-0.74
2022-12-19T08:17:18.694Z,-0.69
2022-12-19T08:22:32.126Z,-0.66
2022-12-19T08:27:57.127Z,-0.60
2022-12-19T08:33:25.137Z,-0.57
2022-12-19T08:38:49.139Z,-0.53
2022-12-19T08:44:14.131Z,-0.52
2022-12-19T08:49:41.152Z,-0.44
2022-12-19T08:55:12.175Z,-0.36
2022-12-19T09:00:37.141Z,-0.27
2022-12-19T09:06:17.806Z,-0.22
2022-12-19T09:11:47.815Z,-0.17
2022-12-19T09:17:14.196Z,-0.16
2022-12-19T09:22:42.135Z,-0.08
2022-12-19T09:33:51.164Z,0.02
2022-12-19T09:39:19.229Z,0.05
2022-12-19T09:45:19.070Z,0.10
2022-12-19T09:51:06.891Z,0.15
2022-12-19T09:56:46.210Z,0.19
2022-12-19T10:02:32.440Z,0.24
2022-12-19T10:08:08.453Z,0.32
2022-12-19T10:13:53.207Z,0.38
2022-12-19T10:19:21.193Z,0.44
2022-12-19T10:25:08.256Z,0.52
2022-12-19T10:30:38.203Z,0.56
2022-12-19T10:36:06.326Z,0.64
2022-12-19T10:41:36.757Z,0.69
2022-12-19T10:47:11.255Z,0.77
2022-12-19T10:53:03.200Z,0.86
2022-12-19T10:58:32.210Z,0.94
2022-12-19T11:04:04.213Z,0.99
2022-12-19T11:09:34.239Z,1.04
2022-12-19T11:20:23.295Z,1.10
2022-12-19T11:29:32.362Z,1.19
2022-12-19T11:29:37.220Z,1.25
2022-12-19T11:32:47.689Z,1.29
